Ketchikan, AK

9:55 PM AKDT on October 20, 2014 (GMT -0800)
Ketchikan International | Change Station
CLOSE
Current Station
Airport
Location: Ketchikan,
Elevation: 95 ft
Nearby Weather Stations

Elev 95 ft 55.36 °N, 131.71 °W | Updated 4 minutes ago

Overcast
Overcast
50 °F
Feels Like 50 °F
N
12
Wind Variable Wind from SSE

Today
High -- | Low -- °F
--% Chance of Precip.
Yesterday
High -- | Low -- °F
Precip. -- in
7:27 AM 5:34 PM
Waning Crescent, 7% visible
Pressure 29.46 in
Visibility 10.0 miles
Clouds Few 1300 ft
Mostly Cloudy 3800 ft
Overcast 6500 ft
Dew Point 46 °F
Humidity 87%
Rainfall 0.49 in
Snow Depth Not available.
UV 0 out of 12
Pollen Not available.
Air Quality Not available.
Flu Activity Sporadic
SPECI PAKT 210551Z AUTO 15010KT 10SM FEW013 BKN038 OVC065 10/08 A2946 RMK AO2 TSNO

More Conditions Fewer Conditions

Pressure 29.46 in
Visibility 10.0 miles
Clouds Few 1300 ft
Mostly Cloudy 3800 ft
Overcast 6500 ft
Dew Point 46 °F
Humidity 87%
Rainfall 0.49 in
Snow Depth Not available.
UV 0 out of 12
Pollen Not available.
Air Quality Not available.
Flu Activity Sporadic
SPECI PAKT 210551Z AUTO 15010KT 10SM FEW013 BKN038 OVC065 10/08 A2946 RMK AO2 TSNO

More Conditions Fewer Conditions

10-Day Weather Forecast

Almanac

Astronomy

Oct. 20, 2014 Rise Set
Actual Time 7:27 AM AKDT 5:34 PM AKDT
Civil Twilight 6:49 AM AKDT 6:11 PM AKDT
Nautical Twilight 6:07 AM AKDT 6:54 PM AKDT
Astronomical Twilight 5:24 AM AKDT 7:36 PM AKDT
Moon 3:52 AM AKDT (10/20) 4:26 PM AKDT (10/20)
Length of Visible Light 11h 22m
Length of Day
10h 07m
Tomorrow will be 4m 23s shorter.
Waning Crescent, 7% of the Moon is Illuminated
Oct 21
Waning Crescent
Oct 23
New
Oct 30
First Quarter
Nov 6
Full
Nov 14
Last Quarter

Yesterday's Extremes

State Highs State Lows

Community

WunderPhotos

Upload Photos

1,763,613 photos uploaded!

Nearby

Snow Depth

Station Depth Elevation
Long Lake 0 in 820 ft
Upper Tsaina River 9 in 1750 ft
Moraine 0 in 2100 ft
Nuka Glacier 164 in 1250 ft
Grouse Creek Divide 1 in 700 ft

Earthquake Activity

City Distance Mag. Time & Date
No recent earthquake activity has been reported nearby.
Minimum magnitude displayed is 2.5.

Coastal Water Temperatures

Place Temperature
No Stations Reporting

Nearby Weather Stations